Terminal Aerodrome Forecast
Issued by NWS

Home | Current Version | Previous Version | Text Only | Print | Product List | Glossary On
Versions: 1 2 3 4 5 6 7 8 9 10 11 12 13
000
FTUS45 KSLC 270225 AAA
TAFPVU
TAF AMD
KPVU 270225Z 2702/2724 20009KT P6SM VCSH BKN100
      TEMPO 2702/2704 VRB25G40KT BKN090
     FM270500 14006KT P6SM FEW100
     FM271200 11006KT P6SM FEW100
     FM271700 26007KT P6SM SCT100
     FM272000 27012KT P6SM SCT100=

USA.gov is the U.S. government's official web portal to all federal, state and local government web resources and services.